logo
Rechercher aéroport 
image banner adimage banner adimage banner ad
image banner ad

FA0577 - Morning Star Airfield

Situé à , South Africa

ICAO - , IATA -

Données fournies par Airmate  

Information générale

Coordonnées: S33°45'33" E18°32'54"
Élévation : 226 feet MSL.
 
Voir autres Aéroports à Western Cape

Données opérationnelles

Special qualification required
Heure actuelle UTC:
Heure actuelle locale:
Météo à : - ( 0 km )
METAR: PAJC 171601Z AUTO 06008KT 10SM OVC014 08/05 A3004 RMK AO2 $
Voir NOTAMs / SUP AIP / TFR affectant cet aéroport [VIEW]
Fréquences de communication: [VIEW]

Pistes:

Coordonnées de l'aéroport

Adresse: South Africa

Vue satellite de FA0577